Rock River, WY (82083)

8:28 AM MDT on August 29, 2015 (GMT -0600)
APRSWXNET | | Change Station
CLOSE
Current Station
Personal Weather Station
Location: Medicine Bow, WY
Elevation: 6571 ft
Nearby Weather Stations

Elev 6571 ft 41.90 °N, 106.23 °W | Updated 21 minutes ago

Clear
Clear
49 °F
Feels Like 49 °F
N
0
Wind Variable Wind from South
Gusts 1.0 mph

Today
High -- | Low -- °F
--% Chance of Precip.
Yesterday
High -- | Low -- °F
Precip. -- in
6:26 AM 7:42 PM
Full, 100% visible
Pressure 30.35 in
Visibility 10.0 miles
Clouds Clear
Windchill 49 °F
Dew Point 42 °F
Humidity 78%
Rainfall in
Snow Depth Not available.
UV 1 out of 12
Pollen 10.30 out of 12
Air Quality Not available.
Flu Activity Not available.
METAR KEHY 291415Z AUTO 00000KT 10SM CLR 13/06 A3035 RMK AO2
Pressure 30.35 in
Visibility 10.0 miles
Clouds Clear
Windchill 49 °F
Dew Point 42 °F
Humidity 78%
Rainfall in
Snow Depth Not available.
UV 1 out of 12
Pollen 10.30 out of 12
Air Quality Not available.
Flu Activity Not available.
METAR KEHY 291415Z AUTO 00000KT 10SM CLR 13/06 A3035 RMK AO2

10-Day Weather Forecast

×

Almanac

Astronomy

Aug. 29, 2015 Rise Set
Actual Time
Civil Twilight
Nautical Twilight
Astronomical Twilight
Moon
Length of Visible Light
Length of Day
Tomorrow will be .
, % of the Moon is Illuminated

Today's Extremes

State Highs State Lows

Community

WunderPhotos

Upload Photos

1,850,706 photos uploaded!

WunderBlogs® & News

Nearby

Air Quality

  Air Quality AQ Index Pollutant
Not available.

Snow Depth

Station Depth Elevation

Earthquake Activity

City Distance Mag. Time & Date
Minimum magnitude displayed is 2.5.

Coastal Water Temperatures

Place Temperature

Stations

Nearby Weather Stations

Station Location Temp. Windchill Dew Point Humidity Wind Precip. Elev Updated Type